Time;durP1;ratioP1;P1;durP2;ratioP2;P2;SDS_P1;SDS_P2;PMS_P1;PMS_P2;Temp;Humidity;BMP_temperature;BMP_pressure;BME280_temperature;BME280_humidity;BME280_pressure;Samples;Min_cycle;Max_cycle;Signal;HPM_P1;HPM_P2
2024/01/10 00:01:44;;;;;;;5.85;3.53;;;-2.60;83.50;;;;;;4855422;29;20030;-72
2024/01/10 00:04:09;;;;;;;7.53;4.32;;;-2.60;83.70;;;;;;4873756;29;20048;-73
2024/01/10 00:06:35;;;;;;;10.25;3.20;;;-2.70;84.20;;;;;;4871731;29;20495;-72
2024/01/10 00:09:02;;;;;;;5.55;3.15;;;-2.70;84.00;;;;;;4873141;29;20064;-74
2024/01/10 00:11:28;;;;;;;11.48;3.22;;;-2.70;83.80;;;;;;4858985;29;20105;-73
2024/01/10 00:13:59;;;;;;;16.30;4.68;;;-2.60;83.50;;;;;;4873142;29;20030;-72
2024/01/10 00:16:28;;;;;;;8.98;3.58;;;-2.60;83.50;;;;;;4858153;29;20064;-73
2024/01/10 00:18:54;;;;;;;6.88;2.95;;;-2.50;83.30;;;;;;4858823;29;20117;-73
2024/01/10 00:21:20;;;;;;;4.53;3.55;;;-2.50;83.50;;;;;;4864957;29;20499;-74
2024/01/10 00:23:46;;;;;;;4.70;2.47;;;-2.50;83.30;;;;;;4859120;29;20058;-73
2024/01/10 00:26:11;;;;;;;3.28;2.42;;;-2.50;83.50;;;;;;4876654;29;20033;-73
2024/01/10 00:28:37;;;;;;;4.78;2.75;;;-2.60;83.80;;;;;;4857625;29;20059;-73
2024/01/10 00:31:03;;;;;;;6.13;2.92;;;-2.60;83.70;;;;;;4876152;29;20095;-72
2024/01/10 00:33:29;;;;;;;5.22;3.35;;;-2.70;83.70;;;;;;4842115;29;20619;-73
2024/01/10 00:35:54;;;;;;;4.70;2.80;;;-2.70;84.00;;;;;;4861178;29;20127;-72
2024/01/10 00:38:20;;;;;;;7.95;3.28;;;-2.80;84.70;;;;;;4852631;29;20052;-72
2024/01/10 00:40:46;;;;;;;5.78;2.78;;;-2.80;84.70;;;;;;4873536;29;20049;-72
2024/01/10 00:43:12;;;;;;;3.50;2.88;;;-2.80;84.40;;;;;;4865328;29;20049;-73
2024/01/10 00:45:38;;;;;;;5.55;2.28;;;-2.90;84.40;;;;;;4851978;29;20036;-74
2024/01/10 00:48:04;;;;;;;3.15;2.22;;;-2.80;84.40;;;;;;4863725;29;20072;-73
2024/01/10 00:50:30;;;;;;;8.75;3.22;;;-2.80;84.70;;;;;;4847133;29;20113;-73
2024/01/10 00:52:55;;;;;;;5.75;3.05;;;-2.80;84.40;;;;;;4846992;29;20132;-72
2024/01/10 00:55:21;;;;;;;6.40;3.53;;;-2.80;84.10;;;;;;4875976;29;20041;-73
2024/01/10 00:57:47;;;;;;;10.02;2.45;;;-2.80;84.20;;;;;;4861325;29;20045;-73
2024/01/10 01:00:13;;;;;;;5.05;3.42;;;-2.80;84.30;;;;;;4876204;29;20045;-72
2024/01/10 01:02:39;;;;;;;10.27;3.33;;;-2.80;84.70;;;;;;4867787;29;20116;-73
2024/01/10 01:05:07;;;;;;;7.80;2.80;;;-2.90;84.70;;;;;;4868295;29;20141;-73
2024/01/10 01:07:33;;;;;;;9.10;3.45;;;-2.90;85.00;;;;;;4871559;29;20034;-72
2024/01/10 01:09:59;;;;;;;10.80;4.38;;;-2.90;85.40;;;;;;4850019;29;20380;-73
2024/01/10 01:12:25;;;;;;;4.03;2.65;;;-2.90;85.00;;;;;;4855951;29;20053;-73
2024/01/10 01:14:51;;;;;;;8.18;3.25;;;-2.80;84.80;;;;;;4875875;29;20394;-72
2024/01/10 01:17:17;;;;;;;14.15;3.55;;;-2.80;84.70;;;;;;4841155;29;20037;-73
2024/01/10 01:19:43;;;;;;;7.25;3.60;;;-2.80;85.20;;;;;;4860294;29;20089;-73
2024/01/10 01:22:08;;;;;;;8.77;3.53;;;-2.80;84.80;;;;;;4856606;29;20097;-73
2024/01/10 01:24:34;;;;;;;6.93;4.03;;;-2.80;85.10;;;;;;4868600;29;20050;-72
2024/01/10 01:27:00;;;;;;;9.07;3.72;;;-2.90;84.80;;;;;;4859643;29;20439;-73
2024/01/10 01:29:26;;;;;;;3.63;2.78;;;-2.80;85.60;;;;;;4846680;29;20061;-73
2024/01/10 01:31:53;;;;;;;4.35;3.63;;;-2.80;84.90;;;;;;4868311;29;20144;-73
2024/01/10 01:34:19;;;;;;;14.60;3.58;;;-2.90;85.20;;;;;;4870796;29;20037;-74
2024/01/10 01:36:45;;;;;;;7.97;2.97;;;-2.90;85.90;;;;;;4857743;29;20106;-73
2024/01/10 01:39:13;;;;;;;7.13;3.53;;;-2.90;86.70;;;;;;4860956;29;20758;-73
2024/01/10 01:41:39;;;;;;;6.10;3.15;;;-3.00;87.30;;;;;;4851575;29;20041;-73
2024/01/10 01:44:05;;;;;;;11.43;4.53;;;-3.10;87.80;;;;;;4860868;29;20560;-73
2024/01/10 01:46:32;;;;;;;6.85;3.40;;;-3.20;88.40;;;;;;4859351;29;20255;-73
2024/01/10 01:48:59;;;;;;;6.93;2.72;;;-3.10;88.50;;;;;;4873923;29;20041;-73
2024/01/10 01:51:28;;;;;;;7.90;3.13;;;-3.00;87.90;;;;;;4867063;29;20032;-73
2024/01/10 01:53:55;;;;;;;4.80;1.63;;;-3.10;87.90;;;;;;4875023;29;20041;-73
2024/01/10 01:56:21;;;;;;;10.35;3.35;;;-3.00;87.70;;;;;;4874572;29;20178;-73
2024/01/10 01:58:50;;;;;;;5.82;3.28;;;-3.10;87.30;;;;;;4872370;29;20034;-73
2024/01/10 02:01:16;;;;;;;7.28;2.60;;;-3.10;87.50;;;;;;4859034;29;20025;-73
2024/01/10 02:03:42;;;;;;;3.03;2.78;;;-3.00;86.70;;;;;;4873944;29;20053;-74
2024/01/10 02:06:08;;;;;;;7.95;3.53;;;-3.00;86.50;;;;;;4849177;29;20034;-73
2024/01/10 02:08:35;;;;;;;6.85;3.40;;;-2.90;86.40;;;;;;4858600;29;20032;-73
2024/01/10 02:11:02;;;;;;;8.45;3.38;;;-2.90;86.10;;;;;;4874420;29;20033;-72
2024/01/10 02:13:29;;;;;;;8.02;3.47;;;-2.80;85.60;;;;;;4866405;29;20276;-73
2024/01/10 02:15:55;;;;;;;8.35;4.25;;;-2.80;85.30;;;;;;4860243;29;20090;-73
2024/01/10 02:18:21;;;;;;;6.82;4.15;;;-2.80;85.30;;;;;;4866749;29;20157;-73
2024/01/10 02:20:47;;;;;;;11.52;4.18;;;-2.70;85.40;;;;;;4859040;29;20072;-73
2024/01/10 02:23:13;;;;;;;9.13;3.72;;;-2.70;85.50;;;;;;4873709;29;20062;-73
2024/01/10 02:25:40;;;;;;;6.38;3.53;;;-2.60;85.40;;;;;;4874923;29;20037;-73
2024/01/10 02:28:09;;;;;;;13.90;3.75;;;-2.60;85.50;;;;;;4870308;29;20132;-73
2024/01/10 02:30:35;;;;;;;15.88;3.80;;;-2.60;85.10;;;;;;4873861;29;20030;-73
2024/01/10 02:33:01;;;;;;;9.07;4.22;;;-2.60;85.00;;;;;;4857990;29;20115;-73
2024/01/10 02:35:27;;;;;;;5.45;2.88;;;-2.60;85.30;;;;;;4866827;29;20552;-73
2024/01/10 02:37:54;;;;;;;4.70;3.45;;;-2.60;85.60;;;;;;4855275;29;20040;-73
2024/01/10 02:40:21;;;;;;;17.77;5.80;;;-2.70;85.50;;;;;;4858011;29;20120;-73
2024/01/10 02:42:46;;;;;;;12.40;5.47;;;-2.70;85.80;;;;;;4870331;29;20049;-73
2024/01/10 02:45:12;;;;;;;4.47;3.08;;;-2.60;85.90;;;;;;4873976;29;20402;-73
2024/01/10 02:47:39;;;;;;;8.90;3.17;;;-2.70;86.20;;;;;;4839324;29;20034;-73
2024/01/10 02:50:05;;;;;;;7.45;3.75;;;-2.60;85.80;;;;;;4873724;29;20033;-73
2024/01/10 02:52:31;;;;;;;6.22;2.42;;;-2.60;85.60;;;;;;4869200;29;20045;-72
2024/01/10 02:54:57;;;;;;;10.77;4.30;;;-2.60;85.60;;;;;;4866200;29;20089;-73
2024/01/10 02:57:23;;;;;;;8.68;3.53;;;-2.60;85.50;;;;;;4870773;29;20390;-73
2024/01/10 02:59:49;;;;;;;7.70;3.13;;;-2.50;85.20;;;;;;4859528;29;20120;-72
2024/01/10 03:02:14;;;;;;;9.85;4.90;;;-2.50;85.20;;;;;;4868511;29;20471;-72
2024/01/10 03:04:42;;;;;;;7.50;4.60;;;-2.50;84.90;;;;;;4873333;29;20037;-73
2024/01/10 03:07:07;;;;;;;13.50;4.03;;;-2.50;84.60;;;;;;4873220;29;20036;-72
2024/01/10 03:09:33;;;;;;;3.35;2.65;;;-2.50;84.30;;;;;;4858548;29;20037;-73
2024/01/10 03:11:59;;;;;;;4.72;2.65;;;-2.40;84.00;;;;;;4857449;29;20120;-73
2024/01/10 03:14:25;;;;;;;12.80;3.38;;;-2.40;84.20;;;;;;4842498;29;20029;-73
2024/01/10 03:16:50;;;;;;;4.88;2.97;;;-2.40;84.20;;;;;;4873050;29;20045;-72
2024/01/10 03:19:16;;;;;;;7.00;3.22;;;-2.40;84.30;;;;;;4843274;29;20044;-73
2024/01/10 03:21:42;;;;;;;3.47;2.28;;;-2.40;84.40;;;;;;4873159;29;20034;-73
2024/01/10 03:24:08;;;;;;;4.18;2.72;;;-2.50;84.40;;;;;;4873328;29;20025;-73
2024/01/10 03:26:34;;;;;;;8.63;2.70;;;-2.50;84.50;;;;;;4873041;29;20033;-72
2024/01/10 03:29:00;;;;;;;9.98;4.07;;;-2.50;84.80;;;;;;4873135;29;20034;-73
2024/01/10 03:31:28;;;;;;;6.95;4.18;;;-2.50;84.90;;;;;;4871702;29;20483;-72
2024/01/10 03:33:54;;;;;;;9.15;4.68;;;-2.50;84.80;;;;;;4871013;29;20033;-74
2024/01/10 03:36:20;;;;;;;12.07;3.80;;;-2.50;85.10;;;;;;4858720;29;20036;-72
2024/01/10 03:38:46;;;;;;;9.73;2.65;;;-2.50;85.30;;;;;;4856158;29;20037;-73
2024/01/10 03:41:20;;;;;;;9.70;3.28;;;-2.60;85.50;;;;;;4859252;29;20037;-73
2024/01/10 03:43:46;;;;;;;4.22;2.88;;;-2.70;86.10;;;;;;4855822;29;20494;-73
2024/01/10 03:46:13;;;;;;;13.15;4.63;;;-2.70;86.60;;;;;;4857821;29;20390;-73
2024/01/10 03:48:48;;;;;;;8.30;3.72;;;-2.60;86.50;;;;;;4854090;29;20049;-73
2024/01/10 03:51:18;;;;;;;10.02;3.80;;;-2.60;86.70;;;;;;4837472;29;20045;-73
2024/01/10 03:53:49;;;;;;;8.32;4.03;;;-2.50;86.80;;;;;;4873689;29;20033;-73
2024/01/10 03:56:15;;;;;;;7.53;4.05;;;-2.50;86.20;;;;;;4869591;29;20124;-73
2024/01/10 03:58:41;;;;;;;8.25;3.97;;;-2.50;86.30;;;;;;4873666;29;20498;-73
2024/01/10 04:01:10;;;;;;;5.78;3.17;;;-2.50;86.00;;;;;;4868949;29;20042;-72
2024/01/10 04:03:36;;;;;;;7.63;4.55;;;-2.50;85.70;;;;;;4860914;29;20132;-73
2024/01/10 04:06:02;;;;;;;13.70;6.13;;;-2.50;86.00;;;;;;4861663;29;20040;-73
2024/01/10 04:08:28;;;;;;;11.30;3.63;;;-2.50;85.90;;;;;;4868446;29;20189;-73
2024/01/10 04:10:54;;;;;;;5.80;3.45;;;-2.50;86.10;;;;;;4860551;29;20045;-73
2024/01/10 04:13:20;;;;;;;12.48;3.50;;;-2.60;86.40;;;;;;4872654;29;20029;-73
2024/01/10 04:15:46;;;;;;;18.17;4.95;;;-2.70;86.20;;;;;;4876406;29;20129;-73
2024/01/10 04:18:12;;;;;;;9.75;3.15;;;-2.70;86.30;;;;;;4861836;29;20402;-73
2024/01/10 04:20:37;;;;;;;3.80;2.85;;;-2.70;86.40;;;;;;4861468;29;20029;-72
2024/01/10 04:23:03;;;;;;;7.32;2.90;;;-2.70;87.60;;;;;;4858354;29;20029;-72
2024/01/10 04:25:29;;;;;;;8.90;3.35;;;-2.70;86.60;;;;;;4876378;29;20066;-72
2024/01/10 04:27:56;;;;;;;7.05;3.17;;;-2.70;87.00;;;;;;4858489;29;20034;-72
2024/01/10 04:30:21;;;;;;;5.70;3.95;;;-2.80;87.10;;;;;;4862109;29;20080;-73
2024/01/10 04:32:47;;;;;;;6.28;3.05;;;-2.80;87.10;;;;;;4861206;29;20061;-72
2024/01/10 04:35:14;;;;;;;12.65;5.05;;;-2.80;87.10;;;;;;4861747;29;20097;-72
2024/01/10 04:37:40;;;;;;;9.00;4.03;;;-2.80;87.10;;;;;;4861772;29;20025;-73
2024/01/10 04:40:06;;;;;;;8.43;3.75;;;-2.80;87.50;;;;;;4861788;29;20045;-73
2024/01/10 04:42:32;;;;;;;14.85;3.90;;;-2.80;87.30;;;;;;4844479;29;20436;-73
2024/01/10 04:44:58;;;;;;;6.82;4.38;;;-2.70;87.50;;;;;;4874647;29;20025;-73
2024/01/10 04:47:24;;;;;;;7.80;4.95;;;-2.70;87.30;;;;;;4852290;29;20037;-73
2024/01/10 04:49:49;;;;;;;4.45;3.00;;;-2.70;86.90;;;;;;4859203;29;20405;-72
2024/01/10 04:52:15;;;;;;;11.65;3.50;;;-2.70;87.30;;;;;;4841418;29;20403;-73
2024/01/10 04:54:41;;;;;;;7.93;2.95;;;-2.60;87.10;;;;;;4875746;29;20037;-73
2024/01/10 04:57:07;;;;;;;7.43;3.95;;;-2.60;87.00;;;;;;4858144;29;20037;-73
2024/01/10 04:59:33;;;;;;;8.48;3.22;;;-2.50;86.60;;;;;;4861719;29;20026;-73
2024/01/10 05:01:59;;;;;;;11.00;5.10;;;-2.50;86.50;;;;;;4874947;29;20078;-73
2024/01/10 05:04:25;;;;;;;15.85;4.05;;;-2.50;86.60;;;;;;4876723;29;20026;-73
2024/01/10 05:06:51;;;;;;;9.05;4.50;;;-2.50;86.90;;;;;;4867677;29;20104;-73
2024/01/10 05:09:17;;;;;;;4.28;3.20;;;-2.60;86.50;;;;;;4861492;29;20048;-73
2024/01/10 05:11:47;;;;;;;9.88;5.03;;;-2.60;86.90;;;;;;4871922;29;20026;-73
2024/01/10 05:14:12;;;;;;;5.50;3.33;;;-2.60;86.90;;;;;;4860134;29;20120;-73
2024/01/10 05:16:38;;;;;;;8.45;4.07;;;-2.70;87.30;;;;;;4858835;29;20178;-73
2024/01/10 05:19:04;;;;;;;7.07;3.38;;;-2.70;87.50;;;;;;4881078;29;20034;-73
2024/01/10 05:21:32;;;;;;;3.25;2.22;;;-2.80;87.50;;;;;;4859480;29;20368;-73
2024/01/10 05:23:57;;;;;;;9.10;3.83;;;-2.80;87.70;;;;;;4872703;29;20035;-73
2024/01/10 05:26:23;;;;;;;9.60;4.47;;;-2.90;88.00;;;;;;4860947;29;20033;-73
2024/01/10 05:28:49;;;;;;;10.75;6.22;;;-2.90;90.20;;;;;;4861282;29;20483;-73
2024/01/10 05:31:15;;;;;;;10.07;4.28;;;-2.90;88.80;;;;;;4859791;29;20036;-74
2024/01/10 05:33:42;;;;;;;10.00;4.10;;;-2.90;90.80;;;;;;4873353;29;20029;-73
2024/01/10 05:36:12;;;;;;;6.00;3.85;;;-2.90;90.60;;;;;;4871300;29;20386;-73
2024/01/10 05:38:39;;;;;;;10.93;3.65;;;-2.80;90.90;;;;;;4865197;29;20295;-73
2024/01/10 05:41:05;;;;;;;11.50;4.20;;;-2.70;93.90;;;;;;4859100;29;20109;-73
2024/01/10 05:43:31;;;;;;;6.53;4.15;;;-2.40;98.80;;;;;;4857654;29;20068;-73
2024/01/10 05:45:58;;;;;;;7.10;2.60;;;-2.50;94.50;;;;;;4874707;29;20044;-73
2024/01/10 05:48:23;;;;;;;8.93;4.75;;;-2.70;92.00;;;;;;4874865;29;20073;-72
2024/01/10 05:50:50;;;;;;;8.35;3.60;;;-2.80;91.70;;;;;;4860255;29;20072;-72
2024/01/10 05:53:17;;;;;;;6.78;4.65;;;-2.90;91.70;;;;;;4855429;29;20739;-73
2024/01/10 05:55:43;;;;;;;7.13;4.40;;;-2.90;91.60;;;;;;4859627;29;20124;-74
2024/01/10 05:58:11;;;;;;;11.57;5.95;;;-2.90;91.70;;;;;;4866493;29;20056;-69
2024/01/10 06:00:37;;;;;;;6.38;3.58;;;-2.90;91.70;;;;;;4857635;29;20109;-67
2024/01/10 06:03:04;;;;;;;9.70;3.65;;;-2.90;92.10;;;;;;4880708;29;20034;-69
2024/01/10 06:05:31;;;;;;;5.45;3.50;;;-3.00;91.70;;;;;;4861280;29;20603;-69
2024/01/10 06:07:57;;;;;;;9.02;3.90;;;-3.10;91.80;;;;;;4858202;29;20045;-68
2024/01/10 06:10:23;;;;;;;5.43;3.53;;;-3.20;92.00;;;;;;4860082;29;20084;-69
2024/01/10 06:12:49;;;;;;;7.28;4.18;;;-3.20;92.00;;;;;;4859130;29;20038;-68
2024/01/10 06:15:15;;;;;;;5.55;3.35;;;-3.10;92.00;;;;;;4861053;29;20511;-69
2024/01/10 06:17:41;;;;;;;6.22;3.28;;;-3.00;92.00;;;;;;4856423;29;20040;-69
2024/01/10 06:20:08;;;;;;;15.88;4.18;;;-2.90;91.60;;;;;;4855224;29;20469;-68
2024/01/10 06:22:33;;;;;;;7.95;2.72;;;-3.00;91.50;;;;;;4858416;29;20414;-68
2024/01/10 06:24:59;;;;;;;14.60;5.95;;;-3.00;91.70;;;;;;4860338;29;20022;-69
2024/01/10 06:27:25;;;;;;;10.40;3.00;;;-2.90;91.70;;;;;;4859345;29;20564;-70
2024/01/10 06:29:51;;;;;;;8.18;4.45;;;-2.90;91.50;;;;;;4859572;29;20055;-67
2024/01/10 06:32:17;;;;;;;5.93;3.20;;;-2.90;91.30;;;;;;4857109;29;20120;-68
2024/01/10 06:34:42;;;;;;;13.02;5.75;;;-2.90;91.50;;;;;;4858647;29;20110;-69
2024/01/10 06:37:08;;;;;;;18.27;5.50;;;-2.90;91.60;;;;;;4858641;29;20038;-68
2024/01/10 06:39:34;;;;;;;11.18;5.05;;;-2.90;91.50;;;;;;4857518;29;20030;-68
2024/01/10 06:42:00;;;;;;;8.10;4.40;;;-2.90;91.60;;;;;;4856908;29;20029;-68
2024/01/10 06:44:28;;;;;;;9.88;4.53;;;-2.80;91.50;;;;;;4858820;29;20057;-67
2024/01/10 06:46:54;;;;;;;8.68;4.07;;;-2.70;91.40;;;;;;4855910;29;20040;-68
2024/01/10 06:49:19;;;;;;;3.72;3.30;;;-2.70;91.30;;;;;;4872629;29;20047;-68
2024/01/10 06:51:45;;;;;;;13.57;5.63;;;-2.70;91.30;;;;;;4855729;29;20406;-68
2024/01/10 06:54:11;;;;;;;7.15;3.88;;;-2.70;91.10;;;;;;4858611;29;20077;-69
2024/01/10 06:56:37;;;;;;;12.10;3.28;;;-2.60;91.10;;;;;;4855902;29;20129;-68
2024/01/10 06:59:03;;;;;;;5.13;2.50;;;-2.50;90.90;;;;;;4859071;29;20033;-68
2024/01/10 07:01:28;;;;;;;6.18;3.47;;;-2.50;91.00;;;;;;4869751;29;20037;-68
2024/01/10 07:03:54;;;;;;;5.93;3.78;;;-2.50;90.90;;;;;;4872569;29;20052;-56
2024/01/10 07:06:21;;;;;;;5.10;3.03;;;-2.20;96.50;;;;;;4858968;29;20042;-52
2024/01/10 07:08:49;;;;;;;9.85;3.88;;;-2.40;91.10;;;;;;4855663;29;20056;-57
2024/01/10 07:11:16;;;;;;;9.50;3.67;;;-2.40;91.00;;;;;;4854955;29;20097;-67
2024/01/10 07:13:42;;;;;;;10.82;3.95;;;-2.50;90.90;;;;;;4857892;29;20413;-68
2024/01/10 07:16:09;;;;;;;7.00;3.88;;;-2.40;90.70;;;;;;4858274;29;20033;-68
2024/01/10 07:18:35;;;;;;;4.85;3.20;;;-2.40;90.70;;;;;;4864993;29;20037;-67
2024/01/10 07:21:01;;;;;;;6.22;3.15;;;-2.40;90.70;;;;;;4852730;29;20394;-68
2024/01/10 07:23:27;;;;;;;6.55;2.75;;;-2.50;90.80;;;;;;4843674;29;20026;-68
2024/01/10 07:25:53;;;;;;;8.95;4.70;;;-2.40;90.80;;;;;;4872386;29;20470;-67
2024/01/10 07:28:19;;;;;;;7.45;3.58;;;-2.50;90.70;;;;;;4864910;29;20109;-68
2024/01/10 07:30:46;;;;;;;6.03;2.97;;;-2.50;90.80;;;;;;4869883;29;20044;-68
2024/01/10 07:33:12;;;;;;;3.22;2.35;;;-2.50;90.90;;;;;;4871958;29;20072;-68
2024/01/10 07:35:38;;;;;;;9.02;4.47;;;-2.50;90.90;;;;;;4858446;29;20095;-69
2024/01/10 07:38:07;;;;;;;7.22;3.75;;;-2.70;91.00;;;;;;4879766;29;20026;-68
2024/01/10 07:40:33;;;;;;;6.32;3.70;;;-2.70;91.30;;;;;;4872488;29;20033;-68
2024/01/10 07:42:59;;;;;;;8.32;3.38;;;-2.70;91.40;;;;;;4864306;29;20094;-68
2024/01/10 07:45:25;;;;;;;10.50;4.40;;;-2.70;91.50;;;;;;4859076;29;20443;-68
2024/01/10 07:47:51;;;;;;;13.68;4.10;;;-2.60;91.50;;;;;;4865528;29;20041;-68
2024/01/10 07:50:17;;;;;;;9.23;3.60;;;-2.60;91.70;;;;;;4855771;29;20038;-69
2024/01/10 07:52:43;;;;;;;6.10;3.55;;;-2.60;91.70;;;;;;4858156;29;20112;-69
2024/01/10 07:55:10;;;;;;;10.32;4.32;;;-2.60;91.80;;;;;;4872943;29;20037;-69
2024/01/10 07:57:39;;;;;;;9.15;2.95;;;-2.60;91.80;;;;;;4856214;29;20426;-67
2024/01/10 08:00:11;;;;;;;9.43;3.60;;;-2.50;91.90;;;;;;4861347;29;20554;-67
2024/01/10 08:05:09;;;;;;;11.15;3.45;;;-2.60;92.10;;;;;;4896189;29;20061;-68
2024/01/10 08:07:39;;;;;;;4.13;2.70;;;-2.60;92.30;;;;;;4894917;29;20051;-68
2024/01/10 08:10:09;;;;;;;9.00;4.53;;;-2.50;92.20;;;;;;4898699;29;20453;-68
2024/01/10 08:12:39;;;;;;;11.13;4.72;;;-2.40;92.30;;;;;;4913689;29;20047;-68
2024/01/10 08:15:06;;;;;;;8.90;3.70;;;-2.40;92.20;;;;;;4917287;29;20028;-69
2024/01/10 08:17:33;;;;;;;7.63;2.80;;;-2.30;92.30;;;;;;4899680;29;20039;-68
2024/01/10 08:20:00;;;;;;;9.23;4.20;;;-2.40;92.40;;;;;;4901992;29;20120;-69
2024/01/10 08:22:26;;;;;;;5.95;3.40;;;-2.40;92.50;;;;;;4907838;29;20028;-69
2024/01/10 08:24:52;;;;;;;8.40;3.53;;;-2.30;92.60;;;;;;4915729;29;20099;-69
2024/01/10 08:27:17;;;;;;;12.98;5.45;;;-2.40;92.70;;;;;;4901212;29;20041;-69
2024/01/10 08:29:44;;;;;;;6.63;3.85;;;-2.30;92.70;;;;;;4905921;29;20051;-69
2024/01/10 08:32:11;;;;;;;10.40;4.90;;;-2.30;92.70;;;;;;4884440;29;20393;-69
2024/01/10 08:34:36;;;;;;;16.98;4.82;;;-2.20;92.70;;;;;;4888319;29;20024;-68
2024/01/10 08:37:03;;;;;;;9.23;3.30;;;-2.30;92.70;;;;;;4898341;29;20039;-68
2024/01/10 08:39:30;;;;;;;6.93;2.95;;;-2.20;93.00;;;;;;4901855;29;20164;-70
2024/01/10 08:41:57;;;;;;;11.98;3.80;;;-2.20;92.90;;;;;;4897379;29;20700;-70
2024/01/10 08:44:23;;;;;;;13.77;5.63;;;-2.30;92.80;;;;;;4901798;29;20088;-69
2024/01/10 08:47:45;;;;;;;9.90;4.38;;;-2.20;93.30;;;;;;4898552;29;20124;-67
2024/01/10 08:50:11;;;;;;;5.70;2.92;;;-2.00;93.10;;;;;;4902420;29;20041;-66
2024/01/10 08:52:39;;;;;;;12.02;4.13;;;-1.80;92.70;;;;;;4902077;29;20111;-66
2024/01/10 08:55:06;;;;;;;9.93;3.35;;;-1.70;92.30;;;;;;4900827;29;20401;-66
2024/01/10 08:57:32;;;;;;;11.43;4.88;;;-1.80;92.30;;;;;;4901954;29;20119;-66
2024/01/10 08:59:58;;;;;;;5.28;3.85;;;-1.70;92.20;;;;;;4909435;29;20496;-66
2024/01/10 09:02:24;;;;;;;9.88;5.35;;;-1.60;92.30;;;;;;4916874;29;20047;-65
2024/01/10 09:04:50;;;;;;;4.65;3.17;;;-1.70;92.20;;;;;;4903127;29;20032;-65
2024/01/10 09:07:17;;;;;;;11.73;5.78;;;-1.60;92.20;;;;;;4904452;29;20040;-66
2024/01/10 09:09:43;;;;;;;11.27;3.65;;;-1.70;92.20;;;;;;4902370;29;20036;-66
2024/01/10 09:12:09;;;;;;;10.52;3.83;;;-1.70;92.30;;;;;;4905658;29;20458;-66
2024/01/10 09:14:37;;;;;;;19.27;5.30;;;-1.70;92.30;;;;;;4902708;29;20036;-66
2024/01/10 09:17:04;;;;;;;8.80;5.00;;;-1.50;92.30;;;;;;4899993;29;20036;-66
2024/01/10 09:19:33;;;;;;;9.57;4.65;;;-1.40;92.20;;;;;;4911548;29;20075;-66
2024/01/10 09:21:59;;;;;;;11.50;4.32;;;-1.30;92.10;;;;;;4901948;29;20108;-66
2024/01/10 09:24:26;;;;;;;8.80;3.72;;;-1.60;92.00;;;;;;4900570;29;20107;-66
2024/01/10 09:26:53;;;;;;;8.80;3.17;;;-1.50;92.10;;;;;;4903619;29;20110;-66
2024/01/10 09:29:19;;;;;;;7.05;3.95;;;-1.50;92.40;;;;;;4900472;29;20783;-66
2024/01/10 09:31:45;;;;;;;11.20;3.92;;;-1.30;92.60;;;;;;4918198;29;20100;-66
2024/01/10 09:34:10;;;;;;;10.00;4.70;;;-1.10;91.90;;;;;;4900266;29;20563;-66
2024/01/10 09:36:36;;;;;;;10.98;4.18;;;-0.70;91.60;;;;;;4905839;29;20036;-66
2024/01/10 09:39:05;;;;;;;9.02;3.00;;;-0.70;91.50;;;;;;4899208;29;20036;-66
2024/01/10 09:41:38;;;;;;;10.95;4.05;;;-0.70;91.20;;;;;;4905437;29;20119;-66
2024/01/10 09:44:04;;;;;;;11.30;4.88;;;-0.50;91.10;;;;;;4905226;29;20497;-66
2024/01/10 09:46:32;;;;;;;19.77;5.20;;;-0.50;90.80;;;;;;4905563;29;20033;-66
2024/01/10 09:48:59;;;;;;;8.65;4.20;;;-0.40;91.00;;;;;;4901169;29;20047;-66
2024/01/10 09:51:26;;;;;;;12.55;5.45;;;-0.30;90.90;;;;;;4903097;29;20048;-66
2024/01/10 09:53:54;;;;;;;9.10;5.05;;;-0.20;90.70;;;;;;4902221;29;20064;-66
2024/01/10 09:56:20;;;;;;;13.88;4.90;;;-0.80;91.00;;;;;;4905418;29;20039;-66
2024/01/10 09:58:48;;;;;;;7.68;3.95;;;-0.50;91.20;;;;;;4896407;29;20040;-66
2024/01/10 10:01:14;;;;;;;10.60;3.67;;;0.00;91.00;;;;;;4902861;29;20441;-66
2024/01/10 10:03:45;;;;;;;13.75;5.63;;;0.60;90.30;;;;;;4901121;29;20032;-66
2024/01/10 10:06:11;;;;;;;9.35;4.43;;;1.40;88.80;;;;;;4919353;29;20109;-66
2024/01/10 10:08:38;;;;;;;15.45;5.55;;;2.40;85.40;;;;;;4887207;29;20112;-67
2024/01/10 10:11:04;;;;;;;12.13;4.60;;;2.20;83.30;;;;;;4920660;29;20384;-66
2024/01/10 10:13:30;;;;;;;9.02;5.22;;;4.20;80.60;;;;;;4904208;29;20029;-66
2024/01/10 10:16:02;;;;;;;12.75;4.80;;;3.50;77.30;;;;;;4902281;29;20040;-67
2024/01/10 10:18:30;;;;;;;13.75;4.28;;;4.70;75.30;;;;;;4897332;29;20115;-65
2024/01/10 10:21:15;;;;;;;11.73;5.88;;;5.00;78.70;;;;;;4905223;29;20028;-66
2024/01/10 10:24:01;;;;;;;17.38;5.72;;;5.40;75.40;;;;;;4898066;29;20107;-66
2024/01/10 10:26:29;;;;;;;23.73;5.72;;;6.40;70.40;;;;;;4904512;29;20025;-66
2024/01/10 10:28:55;;;;;;;12.55;5.35;;;8.90;67.40;;;;;;4897990;29;20056;-66
2024/01/10 10:31:22;;;;;;;15.40;5.95;;;10.80;62.10;;;;;;4904567;29;20072;-66
2024/01/10 10:33:52;;;;;;;11.57;5.25;;;12.50;57.10;;;;;;4901287;29;20044;-65
2024/01/10 10:36:21;;;;;;;12.93;4.68;;;7.70;56.30;;;;;;4906653;29;20503;-65
2024/01/10 10:38:50;;;;;;;12.65;5.72;;;7.40;60.00;;;;;;4901441;29;20568;-66
2024/01/10 10:41:18;;;;;;;14.48;5.32;;;5.60;61.90;;;;;;4904438;29;20029;-65
2024/01/10 10:43:44;;;;;;;13.30;5.30;;;4.80;65.90;;;;;;4901062;29;20036;-66
2024/01/10 10:46:14;;;;;;;20.02;5.57;;;6.10;63.10;;;;;;4915309;29;20056;-65
2024/01/10 10:48:40;;;;;;;13.95;5.40;;;5.30;64.40;;;;;;4896740;29;20040;-65
2024/01/10 10:51:28;;;;;;;13.88;5.95;;;5.00;64.90;;;;;;4906059;29;20034;-67
2024/01/10 10:53:56;;;;;;;17.95;5.95;;;6.30;66.30;;;;;;4898316;29;20069;-66
2024/01/10 10:56:23;;;;;;;15.07;6.30;;;8.50;59.10;;;;;;4906269;29;20038;-67
2024/01/10 10:58:50;;;;;;;13.30;5.30;;;6.00;62.80;;;;;;4895315;29;20041;-66
2024/01/10 11:01:16;;;;;;;12.90;5.43;;;5.40;63.40;;;;;;4917928;29;20021;-66
2024/01/10 11:03:44;;;;;;;11.98;5.55;;;7.60;62.70;;;;;;4899872;29;20030;-66
2024/01/10 11:06:10;;;;;;;14.63;5.22;;;7.80;58.30;;;;;;4900877;29;20040;-66
2024/01/10 11:09:05;;;;;;;9.82;4.38;;;9.30;60.50;;;;;;4897176;29;20172;-66
2024/01/10 11:11:42;;;;;;;14.90;5.30;;;7.00;60.80;;;;;;4900186;29;20081;-65
2024/01/10 11:15:15;;;;;;;13.93;5.47;;;6.40;64.20;;;;;;4901895;29;20560;-65
2024/01/10 11:18:07;;;;;;;15.65;6.32;;;6.30;59.90;;;;;;4897464;29;20112;-65
2024/01/10 11:21:04;;;;;;;9.27;5.55;;;6.10;65.10;;;;;;4917646;29;20075;-65
2024/01/10 11:23:48;;;;;;;12.02;4.43;;;7.10;62.80;;;;;;4898357;29;20028;-66
2024/01/10 11:26:19;;;;;;;12.85;5.63;;;7.30;60.70;;;;;;4894696;29;20037;-66
2024/01/10 11:28:45;;;;;;;16.50;5.32;;;6.80;64.50;;;;;;4895057;29;20028;-66
2024/01/10 11:31:15;;;;;;;15.35;6.25;;;7.80;62.40;;;;;;4895388;29;20052;-66
2024/01/10 11:33:43;;;;;;;15.98;6.85;;;8.90;61.60;;;;;;4895886;29;20024;-66
2024/01/10 11:36:15;;;;;;;14.63;6.28;;;9.90;57.30;;;;;;4908348;29;20485;-66
2024/01/10 11:38:56;;;;;;;12.82;5.47;;;11.70;57.30;;;;;;4896151;29;20037;-66
2024/01/10 11:41:23;;;;;;;17.27;5.13;;;7.70;60.00;;;;;;4894831;29;20123;-66
2024/01/10 11:44:17;;;;;;;14.20;5.93;;;7.90;59.80;;;;;;4895640;29;20035;-66
2024/01/10 11:46:47;;;;;;;15.55;6.38;;;8.40;59.70;;;;;;4895705;29;20587;-66
2024/01/10 11:49:17;;;;;;;13.30;5.20;;;6.90;60.60;;;;;;4895899;29;20040;-66
2024/01/10 11:51:48;;;;;;;12.30;4.97;;;6.20;63.20;;;;;;4892580;29;20040;-66
2024/01/10 11:54:44;;;;;;;12.43;5.35;;;5.00;64.80;;;;;;4894568;29;20493;-67
2024/01/10 11:57:26;;;;;;;15.23;5.90;;;5.90;63.60;;;;;;4893928;29;20048;-66
2024/01/10 11:59:54;;;;;;;13.75;5.13;;;5.00;64.40;;;;;;4894040;29;20029;-65
2024/01/10 12:02:24;;;;;;;18.98;6.57;;;4.10;65.90;;;;;;4895842;29;20029;-67
2024/01/10 12:04:50;;;;;;;22.27;6.32;;;5.30;65.30;;;;;;4893561;29;20382;-66
2024/01/10 12:07:18;;;;;;;11.38;4.65;;;5.30;66.40;;;;;;4887598;29;20040;-66
2024/01/10 12:09:44;;;;;;;11.18;5.75;;;4.70;67.00;;;;;;4895450;29;20039;-65
2024/01/10 12:12:11;;;;;;;19.67;6.72;;;6.70;66.30;;;;;;4910352;29;21519;-65
2024/01/10 12:14:37;;;;;;;12.57;4.85;;;6.10;64.70;;;;;;4912642;29;20024;-66
2024/01/10 12:17:05;;;;;;;10.88;4.75;;;5.70;66.50;;;;;;4899026;29;20040;-66
2024/01/10 12:19:30;;;;;;;9.25;5.07;;;6.30;62.90;;;;;;4899332;29;20032;-66
2024/01/10 12:21:57;;;;;;;11.77;5.10;;;7.00;63.50;;;;;;4896080;29;20028;-66
2024/01/10 12:24:22;;;;;;;11.50;6.20;;;7.10;64.60;;;;;;4899431;29;20029;-66
2024/01/10 12:26:50;;;;;;;14.88;6.35;;;9.10;62.00;;;;;;4897849;29;20072;-66
2024/01/10 12:29:20;;;;;;;17.52;6.78;;;5.90;62.20;;;;;;4897950;29;20024;-66
2024/01/10 12:31:47;;;;;;;13.18;5.63;;;6.00;65.40;;;;;;4898455;29;20028;-66
2024/01/10 12:34:14;;;;;;;17.48;5.72;;;5.60;64.90;;;;;;4897712;29;20111;-66
2024/01/10 12:36:40;;;;;;;15.85;6.00;;;6.30;66.10;;;;;;4896988;29;20028;-65
2024/01/10 12:39:06;;;;;;;11.45;5.55;;;6.70;62.40;;;;;;4902081;29;20038;-66
2024/01/10 12:41:34;;;;;;;11.65;5.30;;;5.50;65.40;;;;;;4897810;29;20068;-66
2024/01/10 12:44:03;;;;;;;16.55;6.10;;;7.10;64.60;;;;;;4898296;29;20056;-67
2024/01/10 12:46:30;;;;;;;11.38;5.90;;;5.60;63.20;;;;;;4909927;29;20037;-66
2024/01/10 12:49:07;;;;;;;15.82;4.82;;;4.60;67.50;;;;;;4897761;29;20096;-66
2024/01/10 12:51:37;;;;;;;11.30;5.18;;;6.80;65.20;;;;;;4898197;29;20516;-66